»·PEaware :: UAL332 KIFP-KBUR

UAL332 :: KIFP-KBUR

FLIGHT INFORMATION

Flight Status: Arrived
Operator:
United Airlines
More flights by this operator :: More flights under this callsign
Pilot: Sergei F. (8485)
Aircraft: BOEING 737-300
(B733)
More flights by this aircraft type
Origin: KIFP Laughlin/Bullhead Intl
United States
Destination: KBUR Bob Hope-Burbank
United States
More flights between these airports :: More routes between these airports
Route: +EED HEC LYNNX8
File this flight plan on PilotEdge
Remarks:
Altitude:
(Current/Filed)
16,000ft
Speed:
(Current/Filed)
300kts
Departed: 29-Jun-18 04:22 PM
Arrived: 29-Jun-18 05:09 PM
Distance/Time
Traveled:
196nm/0:47
Distance/Time
To Go:
Arrived

Flight Plot

Page will automatically refresh every two minutes.

Flight plan parsing failed; only flown route is shown


Map Options




Map Legend


Flown Route
Filed Route
Departure Airport
Arrival Airport
Navaid (VOR, NDB)
Fix

Horizontal Profiles

Position Reports

Time Latitude Longitude Heading Altitude Ground
Speed
29-Jun-18 15:57 35.165149 -114.556324 85 702ft 0kts
29-Jun-18 15:58 35.165149 -114.556324 85 702ft 0kts
29-Jun-18 15:59 35.165149 -114.556324 85 702ft 0kts
29-Jun-18 16:00 35.165149 -114.556324 85 702ft 0kts
29-Jun-18 16:01 35.165149 -114.556324 85 702ft 0kts
29-Jun-18 16:02 35.165149 -114.556324 85 702ft 0kts
29-Jun-18 16:03 35.165149 -114.556324 85 702ft 0kts
29-Jun-18 16:04 35.164943 -114.556812 37 702ft 2kts
29-Jun-18 16:05 35.164501 -114.556954 353 702ft 0kts
29-Jun-18 16:06 35.164502 -114.556954 353 702ft 0kts
29-Jun-18 16:07 35.164502 -114.556954 353 702ft 0kts
29-Jun-18 16:08 35.164502 -114.556954 353 702ft 0kts
29-Jun-18 16:09 35.164502 -114.556954 353 702ft 0kts
29-Jun-18 16:10 35.164502 -114.556954 353 702ft 0kts
29-Jun-18 16:11 35.164502 -114.556954 353 702ft 0kts
29-Jun-18 16:12 35.164502 -114.556954 353 702ft 0kts
29-Jun-18 16:13 35.164502 -114.556954 353 702ft 0kts
29-Jun-18 16:14 35.164502 -114.556954 353 702ft 0kts
29-Jun-18 16:15 35.164502 -114.556954 353 702ft 0kts
29-Jun-18 16:16 35.165021 -114.557138 304 702ft 5kts
29-Jun-18 16:17 35.165086 -114.557703 266 702ft 3kts
29-Jun-18 16:18 35.165506 -114.558755 352 702ft 0kts
29-Jun-18 16:19 35.166096 -114.558942 317 702ft 0kts
29-Jun-18 16:20 35.166107 -114.558955 315 702ft 0kts
29-Jun-18 16:21 35.165399 -114.560146 174 702ft 13kts
29-Jun-18 16:22 35.134619 -114.558787 177 1837ft 162kts
29-Jun-18 16:23 35.084534 -114.556756 174 4353ft 199kts
29-Jun-18 16:24 35.028747 -114.552191 168 7447ft 203kts
29-Jun-18 16:25 34.971741 -114.538658 168 9199ft 217kts
29-Jun-18 16:26 34.910336 -114.522015 168 10962ft 254kts
29-Jun-18 16:27 34.831168 -114.504664 185 12609ft 315kts
29-Jun-18 16:28 34.776532 -114.578673 263 15455ft 334kts
29-Jun-18 16:29 34.772564 -114.692593 267 16013ft 350kts
29-Jun-18 16:30 34.774022 -114.808204 269 16021ft 366kts
29-Jun-18 16:31 34.776642 -114.931711 269 16018ft 366kts
29-Jun-18 16:32 34.779056 -115.053443 271 16015ft 359kts
29-Jun-18 16:33 34.781235 -115.175001 272 16014ft 372kts
29-Jun-18 16:34 34.783441 -115.300467 272 16023ft 375kts
29-Jun-18 16:35 34.785528 -115.425862 272 16018ft 375kts
29-Jun-18 16:36 34.787482 -115.551095 272 16060ft 374kts
29-Jun-18 16:37 34.789294 -115.675316 272 16097ft 374kts
29-Jun-18 16:38 34.790925 -115.795527 272 16139ft 374kts
29-Jun-18 16:39 34.792500 -115.920627 272 16137ft 374kts
29-Jun-18 16:40 34.793948 -116.045874 272 16137ft 374kts
29-Jun-18 16:41 34.795271 -116.171280 272 16137ft 374kts
29-Jun-18 16:42 34.796461 -116.296299 272 16103ft 374kts
29-Jun-18 16:43 34.797521 -116.421104 272 16065ft 374kts
29-Jun-18 16:44 34.789858 -116.545263 265 15944ft 369kts
29-Jun-18 16:45 34.777818 -116.665671 264 15872ft 369kts
29-Jun-18 16:46 34.765604 -116.786579 264 15902ft 368kts
29-Jun-18 16:47 34.753011 -116.909580 264 15905ft 368kts
29-Jun-18 16:48 34.740611 -117.032322 264 15944ft 365kts
29-Jun-18 16:49 34.728287 -117.153866 265 15987ft 362kts
29-Jun-18 16:50 34.715840 -117.275449 265 15992ft 362kts
29-Jun-18 16:51 34.703329 -117.396440 265 15992ft 362kts
29-Jun-18 16:52 34.690651 -117.517850 265 15992ft 362kts
29-Jun-18 16:53 34.677858 -117.639156 264 15295ft 361kts
29-Jun-18 16:54 34.665624 -117.754305 264 14332ft 368kts
29-Jun-18 16:56 34.652264 -117.877341 263 13981ft 357kts
29-Jun-18 16:57 34.638859 -117.996372 264 14015ft 349kts
29-Jun-18 16:58 34.622192 -118.106518 255 12801ft 340kts
29-Jun-18 16:59 34.598598 -118.211626 256 10983ft 309kts
29-Jun-18 17:00 34.577690 -118.305379 257 9663ft 273kts
29-Jun-18 17:01 34.558951 -118.388830 257 8358ft 248kts
29-Jun-18 17:02 34.534981 -118.462081 209 7271ft 245kts
29-Jun-18 17:02 34.481372 -118.477281 191 6132ft 239kts
29-Jun-18 17:04 34.408803 -118.489358 146 4970ft 223kts
29-Jun-18 17:05 34.360721 -118.446336 141 5035ft 197kts
29-Jun-18 17:06 34.321289 -118.411242 143 3827ft 180kts
29-Jun-18 17:06 34.288167 -118.387706 152 2608ft 151kts
29-Jun-18 17:07 34.253090 -118.371520 169 1921ft 133kts
29-Jun-18 17:08 34.217837 -118.362048 167 1013ft 131kts
29-Jun-18 17:09 34.197216 -118.356169 115 784ft 9kts
29-Jun-18 17:10 34.197172 -118.352792 91 784ft 4kts
29-Jun-18 17:11 34.196864 -118.352397 180 784ft 0kts
29-Jun-18 17:12 34.196826 -118.352398 181 784ft 0kts
29-Jun-18 17:13 34.196826 -118.352398 181 784ft 0kts
29-Jun-18 17:17 34.196826 -118.352398 181 784ft 0kts

Navigation Log

Ident Type
Flight plan parsing failed, navigation log unavailable